Nisku, Canada
Current Conditions -  °F | °C
As of 2:00 AM on Saturday 20 Dec 2014 (Local Time) from CYEG Reporting Station
Broken Clouds Broken Clouds  
Wind Chill: -13°   Ceiling: 23000
Heat Index: -8°   Visibility: 15mi
Dew Point: -10°   Wind: 6mph
Humidity: 86%   Direction: 140°SE
Pressure: 29.68"   Gusts: NA
Location:  53.33°N, 113.53°W
Report Text: CYEG 200900Z 14005KT 15SM FEW150 SCT180 BKN230 M08/M10 A2968 RMK AC2AS2CI2 SLP093
Loading
Personal Weather Stations






























Interactive Weather Map New forecast layout! Learn more

10-Day Weather Forecast

Advertisements
Track Severe Weather on mobile